sensor_id;sensor_type;location;lat;lon;timestamp;temperature;humidity
37342;DHT22;58643;49.052;8.518;2023-02-27T00:02:00;-0.30;99.90
37342;DHT22;58643;49.052;8.518;2023-02-27T00:04:25;-0.40;99.90
37342;DHT22;58643;49.052;8.518;2023-02-27T00:06:51;-0.50;99.90
37342;DHT22;58643;49.052;8.518;2023-02-27T00:09:17;-0.50;99.90
37342;DHT22;58643;49.052;8.518;2023-02-27T00:11:42;-0.40;99.90
37342;DHT22;58643;49.052;8.518;2023-02-27T00:14:08;-0.50;99.90
37342;DHT22;58643;49.052;8.518;2023-02-27T00:16:34;-0.50;99.90
37342;DHT22;58643;49.052;8.518;2023-02-27T00:18:59;-0.50;99.90
37342;DHT22;58643;49.052;8.518;2023-02-27T00:21:29;-0.40;99.90
37342;DHT22;58643;49.052;8.518;2023-02-27T00:23:54;-0.60;99.90
37342;DHT22;58643;49.052;8.518;2023-02-27T00:26:20;-0.60;99.90
37342;DHT22;58643;49.052;8.518;2023-02-27T00:28:45;-0.50;99.90
37342;DHT22;58643;49.052;8.518;2023-02-27T00:31:11;-0.60;99.90
37342;DHT22;58643;49.052;8.518;2023-02-27T00:33:36;-0.60;99.90
37342;DHT22;58643;49.052;8.518;2023-02-27T00:36:02;-0.60;99.90
37342;DHT22;58643;49.052;8.518;2023-02-27T00:38:28;-0.60;99.90
37342;DHT22;58643;49.052;8.518;2023-02-27T00:40:54;-0.60;99.90
37342;DHT22;58643;49.052;8.518;2023-02-27T00:43:19;-0.60;99.90
37342;DHT22;58643;49.052;8.518;2023-02-27T00:45:46;-0.60;99.90
37342;DHT22;58643;49.052;8.518;2023-02-27T00:48:12;-0.70;99.90
37342;DHT22;58643;49.052;8.518;2023-02-27T00:50:37;-0.70;99.90
37342;DHT22;58643;49.052;8.518;2023-02-27T00:53:03;-0.60;99.90
37342;DHT22;58643;49.052;8.518;2023-02-27T00:55:29;-0.70;99.90
37342;DHT22;58643;49.052;8.518;2023-02-27T00:57:55;-0.30;99.90
37342;DHT22;58643;49.052;8.518;2023-02-27T01:00:21;-0.60;99.90
37342;DHT22;58643;49.052;8.518;2023-02-27T01:02:46;-0.60;99.90
37342;DHT22;58643;49.052;8.518;2023-02-27T01:05:12;-0.70;99.90
37342;DHT22;58643;49.052;8.518;2023-02-27T01:07:38;-0.60;99.90
37342;DHT22;58643;49.052;8.518;2023-02-27T01:10:05;-0.70;99.90
37342;DHT22;58643;49.052;8.518;2023-02-27T01:12:31;-0.50;99.90
37342;DHT22;58643;49.052;8.518;2023-02-27T01:14:56;-0.70;99.90
37342;DHT22;58643;49.052;8.518;2023-02-27T01:17:22;-0.70;99.90
37342;DHT22;58643;49.052;8.518;2023-02-27T01:19:48;-0.70;99.90
37342;DHT22;58643;49.052;8.518;2023-02-27T01:22:13;-0.80;99.90
37342;DHT22;58643;49.052;8.518;2023-02-27T01:24:39;-0.80;99.90
37342;DHT22;58643;49.052;8.518;2023-02-27T01:27:05;-0.80;99.90
37342;DHT22;58643;49.052;8.518;2023-02-27T01:29:30;-0.90;99.90
37342;DHT22;58643;49.052;8.518;2023-02-27T01:31:56;-1.10;99.90
37342;DHT22;58643;49.052;8.518;2023-02-27T01:34:21;-1.00;99.90
37342;DHT22;58643;49.052;8.518;2023-02-27T01:36:47;-1.00;99.90
37342;DHT22;58643;49.052;8.518;2023-02-27T01:39:13;-1.10;99.90
37342;DHT22;58643;49.052;8.518;2023-02-27T01:41:39;-1.00;99.90
37342;DHT22;58643;49.052;8.518;2023-02-27T01:44:08;-1.00;99.90
37342;DHT22;58643;49.052;8.518;2023-02-27T01:46:34;-1.00;99.90
37342;DHT22;58643;49.052;8.518;2023-02-27T01:51:39;-0.90;99.90
37342;DHT22;58643;49.052;8.518;2023-02-27T01:54:07;-0.90;99.90
37342;DHT22;58643;49.052;8.518;2023-02-27T01:56:33;-0.90;99.90
37342;DHT22;58643;49.052;8.518;2023-02-27T01:59:05;-1.00;99.90
37342;DHT22;58643;49.052;8.518;2023-02-27T02:01:32;-1.00;99.90
37342;DHT22;58643;49.052;8.518;2023-02-27T02:04:23;-1.10;99.90
37342;DHT22;58643;49.052;8.518;2023-02-27T02:07:02;-0.90;99.90
37342;DHT22;58643;49.052;8.518;2023-02-27T02:09:29;-1.10;99.90
37342;DHT22;58643;49.052;8.518;2023-02-27T02:11:56;-1.10;99.90
37342;DHT22;58643;49.052;8.518;2023-02-27T02:14:22;-1.20;99.90
37342;DHT22;58643;49.052;8.518;2023-02-27T02:31:59;-0.70;99.90
37342;DHT22;58643;49.052;8.518;2023-02-27T02:37:52;-1.20;99.90
37342;DHT22;58643;49.052;8.518;2023-02-27T02:40:27;-1.30;99.90
37342;DHT22;58643;49.052;8.518;2023-02-27T02:43:13;-1.30;99.90
37342;DHT22;58643;49.052;8.518;2023-02-27T02:45:47;-1.40;99.90
37342;DHT22;58643;49.052;8.518;2023-02-27T02:48:43;-1.30;99.90
37342;DHT22;58643;49.052;8.518;2023-02-27T02:52:13;-1.00;99.90
37342;DHT22;58643;49.052;8.518;2023-02-27T02:59:24;-1.30;99.90
37342;DHT22;58643;49.052;8.518;2023-02-27T03:01:57;-1.30;99.90
37342;DHT22;58643;49.052;8.518;2023-02-27T03:04:32;-1.20;99.90
37342;DHT22;58643;49.052;8.518;2023-02-27T03:07:08;-1.30;99.90
37342;DHT22;58643;49.052;8.518;2023-02-27T03:12:32;-1.30;99.90
37342;DHT22;58643;49.052;8.518;2023-02-27T03:15:14;-1.40;99.90
37342;DHT22;58643;49.052;8.518;2023-02-27T03:17:49;-1.50;99.90
37342;DHT22;58643;49.052;8.518;2023-02-27T03:20:24;-1.50;99.90
37342;DHT22;58643;49.052;8.518;2023-02-27T03:22:54;-1.40;99.90
37342;DHT22;58643;49.052;8.518;2023-02-27T03:25:22;-1.40;99.90
37342;DHT22;58643;49.052;8.518;2023-02-27T03:28:00;-1.20;99.90
37342;DHT22;58643;49.052;8.518;2023-02-27T03:30:34;-1.40;99.90
37342;DHT22;58643;49.052;8.518;2023-02-27T03:33:18;-1.50;99.90
37342;DHT22;58643;49.052;8.518;2023-02-27T03:35:58;-1.40;99.90
37342;DHT22;58643;49.052;8.518;2023-02-27T03:44:17;-1.60;99.90
37342;DHT22;58643;49.052;8.518;2023-02-27T03:46:46;-1.70;99.90
37342;DHT22;58643;49.052;8.518;2023-02-27T03:49:12;-1.70;99.90
37342;DHT22;58643;49.052;8.518;2023-02-27T03:51:37;-1.70;99.90
37342;DHT22;58643;49.052;8.518;2023-02-27T03:56:58;-1.70;99.90
37342;DHT22;58643;49.052;8.518;2023-02-27T03:59:25;-1.70;99.90
37342;DHT22;58643;49.052;8.518;2023-02-27T04:01:52;-1.60;99.90
37342;DHT22;58643;49.052;8.518;2023-02-27T04:04:18;-1.50;99.90
37342;DHT22;58643;49.052;8.518;2023-02-27T04:06:52;-1.50;99.90
37342;DHT22;58643;49.052;8.518;2023-02-27T04:20:36;-1.30;99.90
37342;DHT22;58643;49.052;8.518;2023-02-27T04:23:07;-1.60;99.90
37342;DHT22;58643;49.052;8.518;2023-02-27T04:28:30;-1.80;99.90
37342;DHT22;58643;49.052;8.518;2023-02-27T04:31:09;-1.80;99.90
37342;DHT22;58643;49.052;8.518;2023-02-27T04:34:18;-1.70;99.90
37342;DHT22;58643;49.052;8.518;2023-02-27T04:36:55;-1.70;99.90
37342;DHT22;58643;49.052;8.518;2023-02-27T04:39:32;-1.60;99.90
37342;DHT22;58643;49.052;8.518;2023-02-27T04:42:10;-1.70;99.90
37342;DHT22;58643;49.052;8.518;2023-02-27T04:44:38;-1.60;99.90
37342;DHT22;58643;49.052;8.518;2023-02-27T04:47:06;-1.50;99.90
37342;DHT22;58643;49.052;8.518;2023-02-27T04:49:36;-1.50;99.90
37342;DHT22;58643;49.052;8.518;2023-02-27T04:52:21;-1.50;99.90
37342;DHT22;58643;49.052;8.518;2023-02-27T04:55:10;-1.50;99.90
37342;DHT22;58643;49.052;8.518;2023-02-27T04:57:41;-1.60;99.90
37342;DHT22;58643;49.052;8.518;2023-02-27T05:00:10;-1.60;99.90
37342;DHT22;58643;49.052;8.518;2023-02-27T05:02:43;-1.70;99.90
37342;DHT22;58643;49.052;8.518;2023-02-27T05:05:15;-1.70;99.90
37342;DHT22;58643;49.052;8.518;2023-02-27T05:08:11;-1.70;99.90
37342;DHT22;58643;49.052;8.518;2023-02-27T05:10:45;-1.70;99.90
37342;DHT22;58643;49.052;8.518;2023-02-27T05:13:19;-1.80;99.90
37342;DHT22;58643;49.052;8.518;2023-02-27T05:15:53;-2.00;99.90
37342;DHT22;58643;49.052;8.518;2023-02-27T05:18:21;-2.10;99.90
37342;DHT22;58643;49.052;8.518;2023-02-27T05:26:53;-2.00;99.90
37342;DHT22;58643;49.052;8.518;2023-02-27T05:29:40;-1.90;99.90
37342;DHT22;58643;49.052;8.518;2023-02-27T05:32:25;-1.90;99.90
37342;DHT22;58643;49.052;8.518;2023-02-27T05:35:12;-1.90;99.90
37342;DHT22;58643;49.052;8.518;2023-02-27T05:37:48;-2.00;99.90
37342;DHT22;58643;49.052;8.518;2023-02-27T05:40:19;-1.90;99.90
37342;DHT22;58643;49.052;8.518;2023-02-27T05:43:32;-1.10;99.90
37342;DHT22;58643;49.052;8.518;2023-02-27T05:45:39;-2.10;99.90
37342;DHT22;58643;49.052;8.518;2023-02-27T05:48:15;-2.20;99.90
37342;DHT22;58643;49.052;8.518;2023-02-27T05:50:43;-2.20;99.90
37342;DHT22;58643;49.052;8.518;2023-02-27T05:53:14;-2.20;99.90
37342;DHT22;58643;49.052;8.518;2023-02-27T05:55:53;-2.00;99.90
37342;DHT22;58643;49.052;8.518;2023-02-27T06:00:56;-1.90;99.90
37342;DHT22;58643;49.052;8.518;2023-02-27T06:03:23;-1.80;99.90
37342;DHT22;58643;49.052;8.518;2023-02-27T06:05:51;-1.90;99.90
37342;DHT22;58643;49.052;8.518;2023-02-27T06:08:18;-1.90;99.90
37342;DHT22;58643;49.052;8.518;2023-02-27T06:10:44;-1.80;99.90
37342;DHT22;58643;49.052;8.518;2023-02-27T06:13:10;-1.70;99.90
37342;DHT22;58643;49.052;8.518;2023-02-27T06:15:36;-1.70;99.90
37342;DHT22;58643;49.052;8.518;2023-02-27T06:18:02;-1.70;99.90
37342;DHT22;58643;49.052;8.518;2023-02-27T06:20:28;-1.60;99.90
37342;DHT22;58643;49.052;8.518;2023-02-27T06:22:53;-1.60;99.90
37342;DHT22;58643;49.052;8.518;2023-02-27T06:25:19;-1.60;99.90
37342;DHT22;58643;49.052;8.518;2023-02-27T06:27:46;-1.50;99.90
37342;DHT22;58643;49.052;8.518;2023-02-27T06:30:12;-1.60;99.90
37342;DHT22;58643;49.052;8.518;2023-02-27T06:32:38;-1.50;99.90
37342;DHT22;58643;49.052;8.518;2023-02-27T06:35:04;-1.60;99.90
37342;DHT22;58643;49.052;8.518;2023-02-27T06:37:31;-1.50;99.90
37342;DHT22;58643;49.052;8.518;2023-02-27T06:39:56;-1.50;99.90
37342;DHT22;58643;49.052;8.518;2023-02-27T06:42:22;-1.50;99.90
37342;DHT22;58643;49.052;8.518;2023-02-27T06:44:48;-1.50;99.90
37342;DHT22;58643;49.052;8.518;2023-02-27T06:47:14;-1.50;99.90
37342;DHT22;58643;49.052;8.518;2023-02-27T06:49:39;-1.50;99.90
37342;DHT22;58643;49.052;8.518;2023-02-27T06:52:05;-1.40;99.90
37342;DHT22;58643;49.052;8.518;2023-02-27T06:54:31;-1.50;99.90
37342;DHT22;58643;49.052;8.518;2023-02-27T06:56:56;-1.50;99.90
37342;DHT22;58643;49.052;8.518;2023-02-27T06:59:22;-1.70;99.90
37342;DHT22;58643;49.052;8.518;2023-02-27T07:01:48;-1.70;99.90
37342;DHT22;58643;49.052;8.518;2023-02-27T07:04:14;-1.50;99.90
37342;DHT22;58643;49.052;8.518;2023-02-27T07:06:40;-1.50;99.90
37342;DHT22;58643;49.052;8.518;2023-02-27T07:09:06;-1.50;99.90
37342;DHT22;58643;49.052;8.518;2023-02-27T07:11:31;-1.40;99.90
37342;DHT22;58643;49.052;8.518;2023-02-27T07:13:57;-1.30;99.90
37342;DHT22;58643;49.052;8.518;2023-02-27T07:16:22;-1.30;99.90
37342;DHT22;58643;49.052;8.518;2023-02-27T07:18:48;-1.30;99.90
37342;DHT22;58643;49.052;8.518;2023-02-27T07:21:14;-1.00;99.90
37342;DHT22;58643;49.052;8.518;2023-02-27T07:23:42;-1.00;99.90
37342;DHT22;58643;49.052;8.518;2023-02-27T07:26:08;-0.90;99.90
37342;DHT22;58643;49.052;8.518;2023-02-27T07:28:34;-0.80;99.90
37342;DHT22;58643;49.052;8.518;2023-02-27T07:31:00;-0.80;99.90
37342;DHT22;58643;49.052;8.518;2023-02-27T07:33:26;-0.60;99.90
37342;DHT22;58643;49.052;8.518;2023-02-27T07:35:51;-0.60;99.90
37342;DHT22;58643;49.052;8.518;2023-02-27T07:38:17;-0.50;99.90
37342;DHT22;58643;49.052;8.518;2023-02-27T07:40:44;-0.30;99.90
37342;DHT22;58643;49.052;8.518;2023-02-27T07:43:11;-0.70;99.90
37342;DHT22;58643;49.052;8.518;2023-02-27T07:45:36;-0.40;99.90
37342;DHT22;58643;49.052;8.518;2023-02-27T07:48:02;-0.20;99.90
37342;DHT22;58643;49.052;8.518;2023-02-27T07:50:28;-0.20;99.90
37342;DHT22;58643;49.052;8.518;2023-02-27T07:52:53;0.10;99.90
37342;DHT22;58643;49.052;8.518;2023-02-27T07:55:19;0.00;99.90
37342;DHT22;58643;49.052;8.518;2023-02-27T07:57:44;1.00;99.90
37342;DHT22;58643;49.052;8.518;2023-02-27T08:00:10;0.20;99.90
37342;DHT22;58643;49.052;8.518;2023-02-27T08:02:36;0.20;99.90
37342;DHT22;58643;49.052;8.518;2023-02-27T08:05:02;0.30;99.90
37342;DHT22;58643;49.052;8.518;2023-02-27T08:07:28;0.40;99.90
37342;DHT22;58643;49.052;8.518;2023-02-27T08:09:54;0.50;99.90
37342;DHT22;58643;49.052;8.518;2023-02-27T08:12:19;0.60;99.90
37342;DHT22;58643;49.052;8.518;2023-02-27T08:14:45;0.60;99.90
37342;DHT22;58643;49.052;8.518;2023-02-27T08:17:10;0.80;99.90
37342;DHT22;58643;49.052;8.518;2023-02-27T08:19:36;0.90;99.90
37342;DHT22;58643;49.052;8.518;2023-02-27T08:22:02;1.00;99.90
37342;DHT22;58643;49.052;8.518;2023-02-27T08:24:28;1.00;99.90
37342;DHT22;58643;49.052;8.518;2023-02-27T08:26:54;1.20;99.90
37342;DHT22;58643;49.052;8.518;2023-02-27T08:29:19;4.10;99.90
37342;DHT22;58643;49.052;8.518;2023-02-27T08:31:45;1.30;99.90
37342;DHT22;58643;49.052;8.518;2023-02-27T08:34:11;1.50;99.90
37342;DHT22;58643;49.052;8.518;2023-02-27T08:36:37;1.60;99.90
37342;DHT22;58643;49.052;8.518;2023-02-27T08:39:04;1.80;99.90
37342;DHT22;58643;49.052;8.518;2023-02-27T08:41:30;2.00;99.90
37342;DHT22;58643;49.052;8.518;2023-02-27T08:43:55;2.20;99.90
37342;DHT22;58643;49.052;8.518;2023-02-27T08:46:21;4.70;99.90
37342;DHT22;58643;49.052;8.518;2023-02-27T08:48:46;3.80;99.90
37342;DHT22;58643;49.052;8.518;2023-02-27T08:51:12;4.00;99.90
37342;DHT22;58643;49.052;8.518;2023-02-27T08:53:37;4.40;99.90
37342;DHT22;58643;49.052;8.518;2023-02-27T08:56:03;4.80;99.90
37342;DHT22;58643;49.052;8.518;2023-02-27T08:58:29;5.80;99.90
37342;DHT22;58643;49.052;8.518;2023-02-27T09:00:54;6.10;98.60
37342;DHT22;58643;49.052;8.518;2023-02-27T09:03:20;6.60;97.00
37342;DHT22;58643;49.052;8.518;2023-02-27T09:05:48;8.10;96.30
37342;DHT22;58643;49.052;8.518;2023-02-27T09:08:14;8.40;95.10
37342;DHT22;58643;49.052;8.518;2023-02-27T09:10:40;7.60;92.40
37342;DHT22;58643;49.052;8.518;2023-02-27T09:13:06;8.70;90.20
37342;DHT22;58643;49.052;8.518;2023-02-27T09:15:31;8.90;84.40
37342;DHT22;58643;49.052;8.518;2023-02-27T09:18:00;7.70;87.10
37342;DHT22;58643;49.052;8.518;2023-02-27T09:20:30;7.80;87.30
37342;DHT22;58643;49.052;8.518;2023-02-27T09:22:57;9.70;87.60
37342;DHT22;58643;49.052;8.518;2023-02-27T09:25:23;8.20;86.20
37342;DHT22;58643;49.052;8.518;2023-02-27T09:27:49;8.60;84.60
37342;DHT22;58643;49.052;8.518;2023-02-27T09:30:14;8.40;81.20
37342;DHT22;58643;49.052;8.518;2023-02-27T09:32:40;8.80;81.60
37342;DHT22;58643;49.052;8.518;2023-02-27T09:35:06;8.50;81.60
37342;DHT22;58643;49.052;8.518;2023-02-27T09:37:33;8.40;80.90
37342;DHT22;58643;49.052;8.518;2023-02-27T09:39:59;10.60;78.70
37342;DHT22;58643;49.052;8.518;2023-02-27T09:42:27;9.10;78.20
37342;DHT22;58643;49.052;8.518;2023-02-27T09:45:02;8.50;78.40
37342;DHT22;58643;49.052;8.518;2023-02-27T09:47:40;8.20;80.50
37342;DHT22;58643;49.052;8.518;2023-02-27T09:52:46;9.10;76.30
37342;DHT22;58643;49.052;8.518;2023-02-27T09:55:18;9.80;74.20
37342;DHT22;58643;49.052;8.518;2023-02-27T09:58:07;11.00;70.70
37342;DHT22;58643;49.052;8.518;2023-02-27T10:08:46;9.00;69.60
37342;DHT22;58643;49.052;8.518;2023-02-27T10:11:18;11.20;72.10
37342;DHT22;58643;49.052;8.518;2023-02-27T10:16:23;10.40;67.20
37342;DHT22;58643;49.052;8.518;2023-02-27T10:21:23;9.60;67.10
37342;DHT22;58643;49.052;8.518;2023-02-27T10:26:41;8.70;69.50
37342;DHT22;58643;49.052;8.518;2023-02-27T10:29:16;12.00;71.60
37342;DHT22;58643;49.052;8.518;2023-02-27T10:31:45;10.30;70.10
37342;DHT22;58643;49.052;8.518;2023-02-27T10:34:13;10.10;69.50
37342;DHT22;58643;49.052;8.518;2023-02-27T10:36:46;12.70;68.30
37342;DHT22;58643;49.052;8.518;2023-02-27T10:39:15;11.40;63.70
37342;DHT22;58643;49.052;8.518;2023-02-27T10:41:41;11.30;63.80
37342;DHT22;58643;49.052;8.518;2023-02-27T10:44:12;13.40;65.50
37342;DHT22;58643;49.052;8.518;2023-02-27T10:46:39;12.10;62.90
37342;DHT22;58643;49.052;8.518;2023-02-27T10:49:17;11.90;63.20
37342;DHT22;58643;49.052;8.518;2023-02-27T10:51:43;13.30;63.70
37342;DHT22;58643;49.052;8.518;2023-02-27T10:54:15;10.60;64.40
37342;DHT22;58643;49.052;8.518;2023-02-27T10:56:46;10.00;66.00
37342;DHT22;58643;49.052;8.518;2023-02-27T10:59:32;10.00;67.50
37342;DHT22;58643;49.052;8.518;2023-02-27T11:02:00;11.30;62.90
37342;DHT22;58643;49.052;8.518;2023-02-27T11:04:50;12.40;62.30
37342;DHT22;58643;49.052;8.518;2023-02-27T11:07:38;13.00;58.50
37342;DHT22;58643;49.052;8.518;2023-02-27T11:12:37;12.60;60.30
37342;DHT22;58643;49.052;8.518;2023-02-27T11:15:21;12.50;61.50
37342;DHT22;58643;49.052;8.518;2023-02-27T11:17:46;11.90;60.60
37342;DHT22;58643;49.052;8.518;2023-02-27T11:20:33;11.80;61.40
37342;DHT22;58643;49.052;8.518;2023-02-27T11:23:26;11.00;62.80
37342;DHT22;58643;49.052;8.518;2023-02-27T11:26:20;11.10;63.10
37342;DHT22;58643;49.052;8.518;2023-02-27T11:29:23;10.80;62.40
37342;DHT22;58643;49.052;8.518;2023-02-27T11:31:55;10.80;62.70
37342;DHT22;58643;49.052;8.518;2023-02-27T11:36:53;11.60;64.30
37342;DHT22;58643;49.052;8.518;2023-02-27T11:39:26;11.20;64.60
37342;DHT22;58643;49.052;8.518;2023-02-27T11:41:54;11.20;61.50
37342;DHT22;58643;49.052;8.518;2023-02-27T11:44:24;13.90;62.10
37342;DHT22;58643;49.052;8.518;2023-02-27T11:46:53;12.00;61.50
37342;DHT22;58643;49.052;8.518;2023-02-27T11:49:34;12.30;61.10
37342;DHT22;58643;49.052;8.518;2023-02-27T11:52:07;13.50;59.30
37342;DHT22;58643;49.052;8.518;2023-02-27T11:55:03;13.40;55.70
37342;DHT22;58643;49.052;8.518;2023-02-27T11:57:33;12.10;57.90
37342;DHT22;58643;49.052;8.518;2023-02-27T12:00:07;11.50;59.40
37342;DHT22;58643;49.052;8.518;2023-02-27T12:05:52;11.90;59.60
37342;DHT22;58643;49.052;8.518;2023-02-27T12:10:54;11.30;59.50
37342;DHT22;58643;49.052;8.518;2023-02-27T12:13:25;12.70;59.40
37342;DHT22;58643;49.052;8.518;2023-02-27T12:21:25;12.70;57.80
37342;DHT22;58643;49.052;8.518;2023-02-27T12:26:35;12.10;54.70
37342;DHT22;58643;49.052;8.518;2023-02-27T12:32:13;12.30;54.90
37342;DHT22;58643;49.052;8.518;2023-02-27T12:35:28;11.80;55.90
37342;DHT22;58643;49.052;8.518;2023-02-27T12:37:33;10.60;56.30
37342;DHT22;58643;49.052;8.518;2023-02-27T12:40:03;10.60;57.90
37342;DHT22;58643;49.052;8.518;2023-02-27T12:51:12;11.20;59.20
37342;DHT22;58643;49.052;8.518;2023-02-27T12:56:14;11.40;56.30
37342;DHT22;58643;49.052;8.518;2023-02-27T13:04:12;12.00;54.10
37342;DHT22;58643;49.052;8.518;2023-02-27T13:07:00;12.30;56.10
37342;DHT22;58643;49.052;8.518;2023-02-27T13:12:28;10.90;54.80
37342;DHT22;58643;49.052;8.518;2023-02-27T13:15:26;10.50;57.60
37342;DHT22;58643;49.052;8.518;2023-02-27T13:26:47;9.60;57.50
37342;DHT22;58643;49.052;8.518;2023-02-27T13:29:17;9.70;60.30
37342;DHT22;58643;49.052;8.518;2023-02-27T13:34:36;9.70;57.30
37342;DHT22;58643;49.052;8.518;2023-02-27T13:37:05;10.00;56.00
37342;DHT22;58643;49.052;8.518;2023-02-27T13:42:00;10.50;57.60
37342;DHT22;58643;49.052;8.518;2023-02-27T13:49:58;10.90;55.40
37342;DHT22;58643;49.052;8.518;2023-02-27T13:52:33;10.40;58.30
37342;DHT22;58643;49.052;8.518;2023-02-27T13:54:59;11.70;60.80
37342;DHT22;58643;49.052;8.518;2023-02-27T13:57:27;9.90;59.10
37342;DHT22;58643;49.052;8.518;2023-02-27T14:00:04;10.20;59.10
37342;DHT22;58643;49.052;8.518;2023-02-27T14:02:49;9.90;56.50
37342;DHT22;58643;49.052;8.518;2023-02-27T14:05:16;10.70;61.00
37342;DHT22;58643;49.052;8.518;2023-02-27T14:08:03;11.30;61.80
37342;DHT22;58643;49.052;8.518;2023-02-27T14:10:30;9.20;58.80
37342;DHT22;58643;49.052;8.518;2023-02-27T14:12:56;11.00;61.10
37342;DHT22;58643;49.052;8.518;2023-02-27T14:17:59;9.10;60.70
37342;DHT22;58643;49.052;8.518;2023-02-27T14:28:47;9.80;57.80
37342;DHT22;58643;49.052;8.518;2023-02-27T14:31:27;9.30;58.90
37342;DHT22;58643;49.052;8.518;2023-02-27T14:33:55;9.70;58.60
37342;DHT22;58643;49.052;8.518;2023-02-27T14:36:33;10.10;60.30
37342;DHT22;58643;49.052;8.518;2023-02-27T14:39:02;10.80;58.70
37342;DHT22;58643;49.052;8.518;2023-02-27T14:44:04;11.10;57.50
37342;DHT22;58643;49.052;8.518;2023-02-27T14:46:33;11.20;57.20
37342;DHT22;58643;49.052;8.518;2023-02-27T14:49:03;10.20;58.80
37342;DHT22;58643;49.052;8.518;2023-02-27T14:51:31;9.10;61.20
37342;DHT22;58643;49.052;8.518;2023-02-27T14:54:13;7.80;63.90
37342;DHT22;58643;49.052;8.518;2023-02-27T14:56:39;7.20;64.10
37342;DHT22;58643;49.052;8.518;2023-02-27T15:01:47;9.70;61.50
37342;DHT22;58643;49.052;8.518;2023-02-27T15:04:17;11.70;61.30
37342;DHT22;58643;49.052;8.518;2023-02-27T15:06:47;11.10;61.60
37342;DHT22;58643;49.052;8.518;2023-02-27T15:09:34;10.10;59.80
37342;DHT22;58643;49.052;8.518;2023-02-27T15:12:01;11.90;60.30
37342;DHT22;58643;49.052;8.518;2023-02-27T15:14:31;10.70;59.80
37342;DHT22;58643;49.052;8.518;2023-02-27T15:16:57;10.10;59.20
37342;DHT22;58643;49.052;8.518;2023-02-27T15:19:27;9.40;60.50
37342;DHT22;58643;49.052;8.518;2023-02-27T15:21:55;8.70;62.10
37342;DHT22;58643;49.052;8.518;2023-02-27T15:24:30;7.80;63.50
37342;DHT22;58643;49.052;8.518;2023-02-27T15:27:05;7.50;63.00
37342;DHT22;58643;49.052;8.518;2023-02-27T15:29:34;7.10;64.40
37342;DHT22;58643;49.052;8.518;2023-02-27T15:32:01;6.40;67.70
37342;DHT22;58643;49.052;8.518;2023-02-27T15:34:27;6.00;69.20
37342;DHT22;58643;49.052;8.518;2023-02-27T15:36:56;5.80;69.60
37342;DHT22;58643;49.052;8.518;2023-02-27T15:39:24;5.60;70.30
37342;DHT22;58643;49.052;8.518;2023-02-27T15:41:56;5.40;71.00
37342;DHT22;58643;49.052;8.518;2023-02-27T15:44:26;5.10;71.90
37342;DHT22;58643;49.052;8.518;2023-02-27T15:46:54;5.00;72.60
37342;DHT22;58643;49.052;8.518;2023-02-27T15:49:22;5.20;72.80
37342;DHT22;58643;49.052;8.518;2023-02-27T15:51:56;6.10;70.20
37342;DHT22;58643;49.052;8.518;2023-02-27T15:54:24;7.30;68.20
37342;DHT22;58643;49.052;8.518;2023-02-27T15:56:50;9.50;66.70
37342;DHT22;58643;49.052;8.518;2023-02-27T15:59:17;8.90;64.00
37342;DHT22;58643;49.052;8.518;2023-02-27T16:01:44;10.40;61.90
37342;DHT22;58643;49.052;8.518;2023-02-27T16:04:20;9.50;61.30
37342;DHT22;58643;49.052;8.518;2023-02-27T16:06:50;9.10;64.00
37342;DHT22;58643;49.052;8.518;2023-02-27T16:09:33;7.00;66.80
37342;DHT22;58643;49.052;8.518;2023-02-27T16:12:20;6.40;66.90
37342;DHT22;58643;49.052;8.518;2023-02-27T16:14:50;5.50;70.30
37342;DHT22;58643;49.052;8.518;2023-02-27T16:17:26;5.30;71.10
37342;DHT22;58643;49.052;8.518;2023-02-27T16:19:53;5.10;72.00
37342;DHT22;58643;49.052;8.518;2023-02-27T16:22:20;5.10;73.00
37342;DHT22;58643;49.052;8.518;2023-02-27T16:24:47;4.80;73.20
37342;DHT22;58643;49.052;8.518;2023-02-27T16:27:23;6.10;74.50
37342;DHT22;58643;49.052;8.518;2023-02-27T16:29:51;4.70;75.20
37342;DHT22;58643;49.052;8.518;2023-02-27T16:32:23;4.70;75.00
37342;DHT22;58643;49.052;8.518;2023-02-27T16:34:49;4.50;75.30
37342;DHT22;58643;49.052;8.518;2023-02-27T16:37:21;4.50;74.90
37342;DHT22;58643;49.052;8.518;2023-02-27T16:39:50;4.30;75.80
37342;DHT22;58643;49.052;8.518;2023-02-27T16:42:19;4.30;75.20
37342;DHT22;58643;49.052;8.518;2023-02-27T16:44:45;4.20;75.80
37342;DHT22;58643;49.052;8.518;2023-02-27T16:47:11;4.10;76.40
37342;DHT22;58643;49.052;8.518;2023-02-27T16:49:37;4.00;76.70
37342;DHT22;58643;49.052;8.518;2023-02-27T16:52:07;3.80;78.00
37342;DHT22;58643;49.052;8.518;2023-02-27T16:54:33;3.80;77.70
37342;DHT22;58643;49.052;8.518;2023-02-27T16:56:59;3.70;78.70
37342;DHT22;58643;49.052;8.518;2023-02-27T16:59:29;3.70;79.00
37342;DHT22;58643;49.052;8.518;2023-02-27T17:01:56;3.60;77.40
37342;DHT22;58643;49.052;8.518;2023-02-27T17:04:26;3.50;80.00
37342;DHT22;58643;49.052;8.518;2023-02-27T17:06:53;3.50;80.20
37342;DHT22;58643;49.052;8.518;2023-02-27T17:09:19;3.40;80.80
37342;DHT22;58643;49.052;8.518;2023-02-27T17:11:45;3.40;80.90
37342;DHT22;58643;49.052;8.518;2023-02-27T17:14:10;3.30;82.00
37342;DHT22;58643;49.052;8.518;2023-02-27T17:16:36;3.30;82.20
37342;DHT22;58643;49.052;8.518;2023-02-27T17:19:02;3.10;83.10
37342;DHT22;58643;49.052;8.518;2023-02-27T17:21:27;3.00;84.00
37342;DHT22;58643;49.052;8.518;2023-02-27T17:23:53;3.10;84.70
37342;DHT22;58643;49.052;8.518;2023-02-27T17:26:19;3.10;85.30
37342;DHT22;58643;49.052;8.518;2023-02-27T17:28:44;3.10;85.70
37342;DHT22;58643;49.052;8.518;2023-02-27T17:31:11;3.00;86.30
37342;DHT22;58643;49.052;8.518;2023-02-27T17:33:38;3.10;86.80
37342;DHT22;58643;49.052;8.518;2023-02-27T17:36:05;2.90;87.50
37342;DHT22;58643;49.052;8.518;2023-02-27T17:38:32;2.90;88.20
37342;DHT22;58643;49.052;8.518;2023-02-27T17:40:57;3.00;89.40
37342;DHT22;58643;49.052;8.518;2023-02-27T17:43:23;3.00;88.50
37342;DHT22;58643;49.052;8.518;2023-02-27T17:45:49;2.90;88.90
37342;DHT22;58643;49.052;8.518;2023-02-27T17:48:14;3.10;90.10
37342;DHT22;58643;49.052;8.518;2023-02-27T17:50:40;3.00;90.00
37342;DHT22;58643;49.052;8.518;2023-02-27T17:53:05;2.90;90.70
37342;DHT22;58643;49.052;8.518;2023-02-27T17:55:34;3.10;91.00
37342;DHT22;58643;49.052;8.518;2023-02-27T17:57:59;2.90;90.80
37342;DHT22;58643;49.052;8.518;2023-02-27T18:00:25;2.90;91.30
37342;DHT22;58643;49.052;8.518;2023-02-27T18:02:50;2.90;91.50
37342;DHT22;58643;49.052;8.518;2023-02-27T18:05:16;5.60;92.40
37342;DHT22;58643;49.052;8.518;2023-02-27T18:07:42;2.80;91.90
37342;DHT22;58643;49.052;8.518;2023-02-27T18:10:08;2.80;92.20
37342;DHT22;58643;49.052;8.518;2023-02-27T18:12:35;2.90;92.10
37342;DHT22;58643;49.052;8.518;2023-02-27T18:15:02;2.90;92.50
37342;DHT22;58643;49.052;8.518;2023-02-27T18:17:27;5.60;93.40
37342;DHT22;58643;49.052;8.518;2023-02-27T18:19:53;2.90;92.90
37342;DHT22;58643;49.052;8.518;2023-02-27T18:22:19;3.00;93.30
37342;DHT22;58643;49.052;8.518;2023-02-27T18:24:47;2.90;93.50
37342;DHT22;58643;49.052;8.518;2023-02-27T18:27:12;2.80;94.00
37342;DHT22;58643;49.052;8.518;2023-02-27T18:29:38;2.80;94.20
37342;DHT22;58643;49.052;8.518;2023-02-27T18:32:06;2.90;94.50